Friday, September 21, 2018, 9:26 PM EDT
Back to Local

KGFL, Floyd Bennett Memorial Airport

Location: Queensbury, NY, United States Lat: 43.333
Local Time: 9:26 PM EDT ( 1:26 GMT) Lon: -73.617
Time Zone: US/Eastern Elev: 328 ft

Show me the last for .
Show Decoded

2018-09-21 20:53 METAR KGFL 220053Z AUTO 18012KT 10SM OVC018 20/17 A2985 RMK AO2 SLP106 T02000172
                 =
2018-09-21 19:53 METAR KGFL 212353Z AUTO 19013G20KT 10SM OVC018 20/17 A2984 RMK AO2 SLP104
                 T02000172 10200 20189 56027 =
2018-09-21 18:53 METAR KGFL 212253Z AUTO 18013G20KT 10SM OVC020 19/17 A2986 RMK AO2 SLP112
                 T01940167 =
2018-09-21 17:53 METAR KGFL 212153Z AUTO 18012KT 10SM OVC021 19/17 A2989 RMK AO2 SLP120 T01940167
                 =
2018-09-21 16:53 METAR KGFL 212053Z AUTO 19013G20KT 10SM OVC021 19/17 A2992 RMK AO2 SLP132
                 T01940167 58031 =
2018-09-21 15:53 METAR KGFL 211953Z AUTO 18010KT 10SM OVC021 19/17 A2996 RMK AO2 SLP146 T01940167
                 =
2018-09-21 14:53 METAR KGFL 211853Z AUTO 18013G25KT 10SM OVC020 19/16 A2999 RMK AO2 SLP154
                 T01940161 =
2018-09-21 13:53 METAR KGFL 211753Z AUTO 20013G18KT 10SM OVC018 19/16 A3001 RMK AO2 SLP164
                 T01890161 10189 20167 58028 =
2018-09-21 12:53 METAR KGFL 211653Z AUTO 19012G21KT 10SM OVC018 19/16 A3004 RMK AO2 SLP174
                 T01890161 =
2018-09-21 11:53 METAR KGFL 211553Z AUTO 19013G23KT 10SM OVC017 18/16 A3007 RMK AO2 SLP183
                 T01830161 =
2018-09-21 10:53 METAR KGFL 211453Z AUTO 19015G20KT 10SM OVC016 18/16 A3010 RMK AO2 SLP192
                 T01830161 58021 =
2018-09-21 09:53 METAR KGFL 211353Z AUTO 19010G19KT 10SM OVC017 17/16 A3012 RMK AO2 SLP199
                 T01720156 =
2018-09-21 08:53 METAR KGFL 211253Z AUTO 18009G15KT 10SM OVC018 17/16 A3014 RMK AO2 SLP208
                 T01670161 =
2018-09-21 07:53 METAR KGFL 211153Z AUTO 19010G18KT 10SM OVC015 17/16 A3016 RMK AO2 RAB1056E30
                 SLP213 P0001 60002 70002 T01670161 10172 20156 58004 =
2018-09-21 06:53 METAR KGFL 211053Z AUTO 17007KT 10SM OVC016 17/16 A3017 RMK AO2 SLP217 T01720156
                 =
2018-09-21 05:53 METAR KGFL 210953Z AUTO 18006KT 10SM OVC017 17/16 A3017 RMK AO2 SLP216 T01670156
                 =
2018-09-21 04:53 METAR KGFL 210853Z AUTO 17005KT 10SM OVC020 16/16 A3017 RMK AO2 SLP217 60001
                 T01610156 58012 =
2018-09-21 03:53 METAR KGFL 210753Z AUTO 00000KT 10SM OVC022 16/15 A3018 RMK AO2 RAE0658 SLP221
                 P0000 T01610150 =
2018-09-21 02:53 METAR KGFL 210653Z AUTO 00000KT 10SM -RA OVC025 16/16 A3020 RMK AO2 RAB07 SLP228
                 P0001 T01560156 =
2018-09-21 01:53 METAR KGFL 210553Z AUTO 00000KT 10SM OVC027 16/15 A3021 RMK AO2 SLP229 T01610150
                 10178 20156 58006 =
2018-09-21 00:53 METAR KGFL 210453Z AUTO 08003KT 10SM OVC026 16/15 A3021 RMK AO2 SLP230 T01610150
                 402060100 =
2018-09-20 23:53 METAR KGFL 210353Z AUTO 00000KT 10SM OVC029 17/14 A3022 RMK AO2 SLP235 T01670144
                 =
2018-09-20 23:51 METAR KGFL 210351Z AUTO 00000KT 10SM OVC029 17/14 A3022 RMK AO2 =
2018-09-20 23:21 METAR KGFL 210321Z AUTO 00000KT 10SM SCT024 OVC030 16/15 A3023 RMK AO2 T01610150
                 =
2018-09-20 22:53 METAR KGFL 210253Z AUTO 06003KT 10SM OVC026 16/16 A3023 RMK AO2 SLP236 T01610156
                 53000 =
2018-09-20 21:53 METAR KGFL 210153Z AUTO 00000KT 10SM BKN028 BKN037 16/16 A3022 RMK AO2 SLP236
                 T01610156 =

Support USWX by starting your Amazon purchase here.